Anchor Point, Alaska
Current Conditions -  °F | °C
As of 11:53 AM on Tuesday 27 Jan 2015 (Local Time) from PAHO Reporting Station
Broken Clouds Broken Clouds  
Wind Chill: -3°   Ceiling: 6000
Heat Index: -3°   Visibility: 10mi
Dew Point: -6°   Wind: 3mph
Humidity: 78%   Direction: 70°ENE
Pressure: 29.91"   Gusts: NA
Location:  59.77°N, 151.82°W
Report Text: PAHO 272053Z 07003KT 10SM SCT007 BKN060 M03/M06 A2991 RMK AO2 SLP129 T10281061 51011
Loading
Personal Weather Stations






























Interactive Weather Map New forecast layout! Learn more

10-Day Weather Forecast

Advertisements
Track Severe Weather on mobile